Time,TemperatureF,DewpointF,PressureIn,WindDirection,WindDirectionDegrees,WindSpeedMPH,WindSpeedGustMPH,Humidity,HourlyPrecipIn,Conditions,Clouds,dailyrainin,SoftwareType,DateUTC
2013-05-14 00:01:00,30.7,26.8,28.36,North,0,2.0,3.0,85,0.00,,,0.00,meteohub,2013-05-14 04:01:00,
2013-05-14 00:02:00,30.7,26.8,28.36,NW,315,2.0,3.0,85,0.00,,,0.00,meteohub,2013-05-14 04:02:00,
2013-05-14 00:03:00,30.7,26.8,28.36,NW,315,2.0,3.0,85,0.00,,,0.00,meteohub,2013-05-14 04:03:00,
2013-05-14 00:08:00,30.6,26.6,28.36,NNW,338,3.0,3.0,85,0.00,,,0.00,meteohub,2013-05-14 04:08:00,
2013-05-14 00:14:00,30.4,26.4,28.36,NW,315,2.0,3.0,85,0.00,,,0.00,meteohub,2013-05-14 04:14:00,
2013-05-14 00:19:00,30.4,26.4,28.36,NW,315,2.0,3.0,85,0.00,,,0.00,meteohub,2013-05-14 04:19:00,
2013-05-14 00:24:00,30.2,26.2,28.36,NW,315,2.0,3.0,85,0.00,,,0.00,meteohub,2013-05-14 04:24:00,
2013-05-14 00:29:00,30.0,26.4,28.36,NW,315,2.0,4.0,86,0.00,,,0.00,meteohub,2013-05-14 04:29:00,
2013-05-14 00:34:00,30.0,26.6,28.36,NNW,338,5.0,5.0,87,0.00,,,0.00,meteohub,2013-05-14 04:34:00,
2013-05-14 00:39:00,30.2,26.6,28.36,NE,45,4.0,5.0,86,0.00,,,0.00,meteohub,2013-05-14 04:39:00,
2013-05-14 00:44:00,30.2,26.8,28.36,NE,45,4.0,5.0,87,0.00,,,0.00,meteohub,2013-05-14 04:44:00,
2013-05-14 00:49:00,30.7,27.7,28.35,NE,45,4.0,5.0,88,0.00,,,0.00,meteohub,2013-05-14 04:49:00,
2013-05-14 00:54:00,31.1,28.0,28.36,NW,315,5.0,6.0,88,0.00,,,0.00,meteohub,2013-05-14 04:54:00,
2013-05-14 00:59:00,31.3,28.2,28.35,NW,315,2.0,6.0,88,0.00,,,0.00,meteohub,2013-05-14 04:59:00,
2013-05-14 01:05:00,31.3,28.2,28.36,West,270,2.0,6.0,88,0.00,,,0.00,meteohub,2013-05-14 05:05:00,
2013-05-14 01:10:00,30.9,27.5,28.35,NW,315,2.0,5.0,87,0.00,,,0.00,meteohub,2013-05-14 05:10:00,
2013-05-14 01:15:00,30.6,27.0,28.35,North,0,2.0,4.0,86,0.00,,,0.00,meteohub,2013-05-14 05:15:00,
2013-05-14 01:20:00,30.2,26.6,28.36,NW,315,1.0,4.0,86,0.00,,,0.00,meteohub,2013-05-14 05:20:00,
2013-05-14 01:25:00,30.0,26.6,28.36,NW,315,2.0,4.0,87,0.00,,,0.00,meteohub,2013-05-14 05:25:00,
2013-05-14 01:30:00,29.7,26.2,28.35,NW,315,3.0,3.0,87,0.00,,,0.00,meteohub,2013-05-14 05:30:00,
2013-05-14 01:35:00,29.7,26.2,28.35,NW,315,2.0,3.0,87,0.00,,,0.00,meteohub,2013-05-14 05:35:00,
2013-05-14 01:40:00,29.5,26.1,28.35,NW,315,2.0,3.0,87,0.00,,,0.00,meteohub,2013-05-14 05:40:00,
2013-05-14 01:45:00,29.3,26.2,28.34,NW,315,2.0,3.0,88,0.00,,,0.00,meteohub,2013-05-14 05:45:00,
2013-05-14 01:50:00,29.1,26.1,28.34,NW,315,2.0,3.0,88,0.00,,,0.00,meteohub,2013-05-14 05:50:00,
2013-05-14 01:55:00,29.1,26.1,28.35,NW,315,2.0,3.0,88,0.00,,,0.00,meteohub,2013-05-14 05:55:00,
2013-05-14 02:00:00,28.9,26.1,28.35,NW,315,2.0,3.0,89,0.00,,,0.00,meteohub,2013-05-14 06:00:00,
2013-05-14 02:06:00,28.9,26.1,28.35,North,0,2.0,2.0,89,0.00,,,0.00,meteohub,2013-05-14 06:06:00,
2013-05-14 02:11:00,28.8,26.2,28.35,North,0,2.0,4.0,90,0.00,,,0.00,meteohub,2013-05-14 06:11:00,
2013-05-14 02:16:00,28.8,26.2,28.35,NW,315,2.0,4.0,90,0.00,,,0.00,meteohub,2013-05-14 06:16:00,
2013-05-14 02:21:00,28.8,26.2,28.35,NW,315,2.0,4.0,90,0.00,,,0.00,meteohub,2013-05-14 06:21:00,
2013-05-14 02:26:00,28.8,26.4,28.35,NW,315,2.0,4.0,91,0.00,,,0.00,meteohub,2013-05-14 06:26:00,
2013-05-14 02:31:00,28.8,26.8,28.35,North,0,4.0,5.0,92,0.00,,,0.00,meteohub,2013-05-14 06:31:00,
2013-05-14 02:36:00,29.1,27.1,28.35,WNW,293,3.0,5.0,92,0.00,,,0.00,meteohub,2013-05-14 06:36:00,
2013-05-14 02:41:00,29.1,27.1,28.35,NW,315,3.0,6.0,92,0.00,,,0.00,meteohub,2013-05-14 06:41:00,
2013-05-14 02:46:00,29.3,27.5,28.36,North,0,4.0,7.0,93,0.00,,,0.00,meteohub,2013-05-14 06:46:00,
2013-05-14 02:51:00,29.5,27.7,28.36,North,0,3.0,7.0,93,0.00,,,0.00,meteohub,2013-05-14 06:51:00,
2013-05-14 02:56:00,29.5,27.7,28.36,NNW,338,2.0,7.0,93,0.00,,,0.00,meteohub,2013-05-14 06:56:00,
2013-05-14 03:01:00,29.5,28.0,28.36,NNW,338,4.0,5.0,94,0.00,,,0.00,meteohub,2013-05-14 07:01:00,
2013-05-14 03:06:00,29.5,28.0,28.36,NNW,338,4.0,4.0,94,0.00,,,0.00,meteohub,2013-05-14 07:06:00,
2013-05-14 03:11:00,29.7,28.2,28.36,North,0,3.0,4.0,94,0.00,,,0.00,meteohub,2013-05-14 07:11:00,
2013-05-14 03:17:00,29.5,28.0,28.36,North,0,2.0,4.0,94,0.00,,,0.00,meteohub,2013-05-14 07:17:00,
2013-05-14 03:22:00,29.5,28.0,28.36,North,0,2.0,4.0,94,0.00,,,0.00,meteohub,2013-05-14 07:22:00,
2013-05-14 03:27:00,29.5,27.7,28.36,North,0,2.0,4.0,93,0.00,,,0.00,meteohub,2013-05-14 07:27:00,
2013-05-14 03:32:00,29.5,27.7,28.37,North,0,2.0,4.0,93,0.00,,,0.00,meteohub,2013-05-14 07:32:00,
2013-05-14 03:37:00,29.5,27.7,28.37,NW,315,0.0,3.0,93,0.00,,,0.00,meteohub,2013-05-14 07:37:00,
2013-05-14 03:42:00,29.3,27.5,28.37,North,0,2.0,3.0,93,0.00,,,0.00,meteohub,2013-05-14 07:42:00,
2013-05-14 03:47:00,29.1,27.3,28.37,NW,315,2.0,3.0,93,0.00,,,0.00,meteohub,2013-05-14 07:47:00,
2013-05-14 03:52:00,29.1,27.3,28.37,West,270,2.0,3.0,93,0.00,,,0.00,meteohub,2013-05-14 07:52:00,
2013-05-14 03:57:00,28.8,26.8,28.37,NW,315,2.0,3.0,92,0.00,,,0.00,meteohub,2013-05-14 07:57:00,
2013-05-14 04:02:00,28.8,26.8,28.36,NW,315,2.0,3.0,92,0.00,,,0.00,meteohub,2013-05-14 08:02:00,
2013-05-14 04:07:00,28.8,26.8,28.36,NW,315,2.0,2.0,92,0.00,,,0.00,meteohub,2013-05-14 08:07:00,
2013-05-14 04:12:00,28.4,26.4,28.37,NW,315,2.0,2.0,92,0.00,,,0.00,meteohub,2013-05-14 08:12:00,
2013-05-14 04:17:00,28.2,25.2,28.36,NW,315,2.0,2.0,88,0.00,,,0.00,meteohub,2013-05-14 08:17:00,
2013-05-14 04:22:00,28.4,26.4,28.36,West,270,2.0,2.0,92,0.00,,,0.00,meteohub,2013-05-14 08:22:00,
2013-05-14 04:27:00,28.4,26.4,28.36,SW,225,2.0,2.0,92,0.00,,,0.00,meteohub,2013-05-14 08:27:00,
2013-05-14 04:32:00,28.6,26.6,28.36,SW,225,0.0,2.0,92,0.00,,,0.00,meteohub,2013-05-14 08:32:00,
2013-05-14 04:37:00,28.6,26.6,28.37,North,0,1.0,2.0,92,0.00,,,0.00,meteohub,2013-05-14 08:37:00,
2013-05-14 04:42:00,28.4,26.4,28.36,NW,315,1.0,2.0,92,0.00,,,0.00,meteohub,2013-05-14 08:42:00,
2013-05-14 04:47:00,28.4,26.4,28.37,North,0,1.0,2.0,92,0.00,,,0.00,meteohub,2013-05-14 08:47:00,
2013-05-14 04:52:00,28.2,25.2,28.36,North,0,0.0,2.0,88,0.00,,,0.00,meteohub,2013-05-14 08:52:00,
2013-05-14 04:57:00,28.0,25.0,28.36,West,270,0.0,2.0,88,0.00,,,0.00,meteohub,2013-05-14 08:57:00,
2013-05-14 05:02:00,27.9,24.8,28.37,SW,225,0.0,2.0,88,0.00,,,0.00,meteohub,2013-05-14 09:02:00,
2013-05-14 05:07:00,27.7,24.6,28.36,NW,315,1.0,2.0,88,0.00,,,0.00,meteohub,2013-05-14 09:07:00,
2013-05-14 05:12:00,27.7,24.6,28.37,West,270,1.0,2.0,88,0.00,,,0.00,meteohub,2013-05-14 09:12:00,
2013-05-14 05:17:00,27.5,24.4,28.37,NW,315,1.0,2.0,88,0.00,,,0.00,meteohub,2013-05-14 09:17:00,
2013-05-14 05:22:00,27.5,24.4,28.36,West,270,1.0,2.0,88,0.00,,,0.00,meteohub,2013-05-14 09:22:00,
2013-05-14 05:27:00,27.5,24.4,28.36,NE,45,2.0,2.0,88,0.00,,,0.00,meteohub,2013-05-14 09:27:00,
2013-05-14 05:32:00,27.5,24.4,28.36,East,90,1.0,2.0,88,0.00,,,0.00,meteohub,2013-05-14 09:32:00,
2013-05-14 05:37:00,27.5,24.4,28.36,NE,45,2.0,2.0,88,0.00,,,0.00,meteohub,2013-05-14 09:37:00,
2013-05-14 05:42:00,27.5,24.4,28.36,East,90,2.0,2.0,88,0.00,,,0.00,meteohub,2013-05-14 09:42:00,
2013-05-14 05:47:00,27.7,24.8,28.36,North,0,2.0,3.0,89,0.00,,,0.00,meteohub,2013-05-14 09:47:00,
2013-05-14 05:52:00,27.7,24.8,28.36,NW,315,0.0,3.0,89,0.00,,,0.00,meteohub,2013-05-14 09:52:00,
2013-05-14 05:57:00,27.9,25.0,28.36,NW,315,0.0,3.0,89,0.00,,,0.00,meteohub,2013-05-14 09:57:00,
2013-05-14 06:02:00,27.9,25.0,28.36,NW,315,0.0,2.0,89,0.00,,,0.00,meteohub,2013-05-14 10:02:00,
2013-05-14 06:07:00,27.9,25.0,28.36,NW,315,0.0,2.0,89,0.00,,,0.00,meteohub,2013-05-14 10:07:00,
2013-05-14 06:12:00,27.9,25.0,28.36,West,270,0.0,2.0,89,0.00,,,0.00,meteohub,2013-05-14 10:12:00,
2013-05-14 06:17:00,27.9,25.0,28.36,West,270,1.0,2.0,89,0.00,,,0.00,meteohub,2013-05-14 10:17:00,
2013-05-14 06:22:00,27.9,25.0,28.37,North,0,2.0,2.0,89,0.00,,,0.00,meteohub,2013-05-14 10:22:00,
2013-05-14 06:27:00,28.4,26.6,28.37,North,0,2.0,2.0,93,0.00,,,0.00,meteohub,2013-05-14 10:27:00,
2013-05-14 06:32:00,29.3,27.9,28.37,North,0,2.0,2.0,94,0.00,,,0.00,meteohub,2013-05-14 10:32:00,
2013-05-14 06:37:00,30.2,28.4,28.37,NE,45,2.0,2.0,93,0.00,,,0.00,meteohub,2013-05-14 10:37:00,
2013-05-14 06:42:00,30.7,29.3,28.37,North,0,3.0,3.0,94,0.00,,,0.00,meteohub,2013-05-14 10:42:00,
2013-05-14 06:47:00,31.3,29.8,28.38,North,0,3.0,4.0,94,0.00,,,0.00,meteohub,2013-05-14 10:47:00,
2013-05-14 06:52:00,31.8,30.4,28.38,NE,45,3.0,4.0,94,0.00,,,0.00,meteohub,2013-05-14 10:52:00,
2013-05-14 06:57:00,32.4,30.4,28.37,North,0,2.0,4.0,92,0.00,,,0.00,meteohub,2013-05-14 10:57:00,
2013-05-14 07:02:00,32.7,30.7,28.38,North,0,2.0,4.0,92,0.00,,,0.00,meteohub,2013-05-14 11:02:00,
2013-05-14 07:07:00,33.1,30.7,28.38,North,0,4.0,4.0,91,0.00,,,0.00,meteohub,2013-05-14 11:07:00,
2013-05-14 07:12:00,33.8,30.6,28.38,North,0,3.0,4.0,88,0.00,,,0.00,meteohub,2013-05-14 11:12:00,
2013-05-14 07:18:00,34.7,30.9,28.38,NNE,23,3.0,4.0,86,0.00,,,0.00,meteohub,2013-05-14 11:18:00,
2013-05-14 07:23:00,35.2,30.6,28.38,NNW,338,4.0,5.0,83,0.00,,,0.00,meteohub,2013-05-14 11:23:00,
2013-05-14 07:28:00,36.0,30.4,28.39,North,0,4.0,6.0,80,0.00,,,0.00,meteohub,2013-05-14 11:28:00,
2013-05-14 07:33:00,36.7,30.2,28.38,North,0,4.0,6.0,77,0.00,,,0.00,meteohub,2013-05-14 11:33:00,
2013-05-14 07:38:00,37.0,29.1,28.39,North,0,3.0,7.0,73,0.00,,,0.00,meteohub,2013-05-14 11:38:00,
2013-05-14 07:43:00,37.9,30.7,28.39,NW,315,5.0,7.0,75,0.00,,,0.00,meteohub,2013-05-14 11:43:00,
2013-05-14 07:48:00,38.5,29.1,28.39,North,0,5.0,7.0,69,0.00,,,0.00,meteohub,2013-05-14 11:48:00,
2013-05-14 07:53:00,38.7,27.9,28.39,NNW,338,5.0,9.0,65,0.00,,,0.00,meteohub,2013-05-14 11:53:00,
2013-05-14 07:58:00,39.0,27.5,28.39,North,0,4.0,9.0,63,0.00,,,0.00,meteohub,2013-05-14 11:58:00,
2013-05-14 08:04:00,39.7,27.9,28.38,North,0,5.0,10.0,62,0.00,,,0.00,meteohub,2013-05-14 12:04:00,
2013-05-14 08:09:00,40.3,26.6,28.38,NW,315,8.0,10.0,58,0.00,,,0.00,meteohub,2013-05-14 12:09:00,
2013-05-14 08:14:00,40.3,25.9,28.38,SW,225,7.0,10.0,56,0.00,,,0.00,meteohub,2013-05-14 12:14:00,
2013-05-14 08:19:00,41.0,25.7,28.38,North,0,8.0,9.0,54,0.00,,,0.00,meteohub,2013-05-14 12:19:00,
2013-05-14 08:24:00,41.0,24.8,28.38,NW,315,12.0,12.0,52,0.00,,,0.00,meteohub,2013-05-14 12:24:00,
2013-05-14 08:29:00,41.2,24.4,28.39,NE,45,9.0,12.0,51,0.00,,,0.00,meteohub,2013-05-14 12:29:00,
2013-05-14 08:34:00,41.2,24.4,28.38,North,0,5.0,12.0,51,0.00,,,0.00,meteohub,2013-05-14 12:34:00,
2013-05-14 08:39:00,41.7,25.0,28.38,NW,315,8.0,12.0,51,0.00,,,0.00,meteohub,2013-05-14 12:39:00,
2013-05-14 08:44:00,42.6,25.3,28.39,West,270,8.0,12.0,50,0.00,,,0.00,meteohub,2013-05-14 12:44:00,
2013-05-14 08:49:00,43.0,24.6,28.38,North,0,11.0,12.0,48,0.00,,,0.00,meteohub,2013-05-14 12:49:00,
2013-05-14 08:54:00,42.4,23.2,28.38,North,0,15.0,15.0,46,0.00,,,0.00,meteohub,2013-05-14 12:54:00,
2013-05-14 08:59:00,42.4,23.7,28.38,NNW,338,6.0,15.0,47,0.00,,,0.00,meteohub,2013-05-14 12:59:00,
2013-05-14 09:05:00,43.5,24.1,28.38,West,270,3.0,15.0,46,0.00,,,0.00,meteohub,2013-05-14 13:05:00,
2013-05-14 09:10:00,44.2,23.2,28.38,NE,45,9.0,15.0,43,0.00,,,0.00,meteohub,2013-05-14 13:10:00,
2013-05-14 09:15:00,43.7,20.3,28.38,North,0,10.0,12.0,39,0.00,,,0.00,meteohub,2013-05-14 13:15:00,
2013-05-14 09:20:00,43.3,19.4,28.38,North,0,10.0,15.0,38,0.00,,,0.00,meteohub,2013-05-14 13:20:00,
2013-05-14 09:25:00,43.9,21.2,28.38,North,0,5.0,15.0,40,0.00,,,0.00,meteohub,2013-05-14 13:25:00,
2013-05-14 09:30:00,44.1,18.9,28.38,North,0,8.0,14.0,36,0.00,,,0.00,meteohub,2013-05-14 13:30:00,
2013-05-14 09:35:00,44.4,21.0,28.38,North,0,9.0,14.0,39,0.00,,,0.00,meteohub,2013-05-14 13:35:00,
2013-05-14 09:40:00,44.4,17.8,28.37,East,90,10.0,15.0,34,0.00,,,0.00,meteohub,2013-05-14 13:40:00,
2013-05-14 09:45:00,44.8,20.1,28.37,NW,315,7.0,15.0,37,0.00,,,0.00,meteohub,2013-05-14 13:45:00,
2013-05-14 09:50:00,45.1,17.1,28.37,NE,45,11.0,15.0,32,0.00,,,0.00,meteohub,2013-05-14 13:50:00,
2013-05-14 09:55:00,45.3,14.2,28.37,North,0,8.0,11.0,28,0.00,,,0.00,meteohub,2013-05-14 13:55:00,
2013-05-14 10:00:00,45.3,13.3,28.37,North,0,9.0,15.0,27,0.00,,,0.00,meteohub,2013-05-14 14:00:00,
2013-05-14 10:05:00,44.8,10.2,28.37,NE,45,12.0,15.0,24,0.00,,,0.00,meteohub,2013-05-14 14:05:00,
2013-05-14 10:10:00,45.1,12.2,28.37,NW,315,8.0,15.0,26,0.00,,,0.00,meteohub,2013-05-14 14:10:00,
2013-05-14 10:16:00,45.9,16.2,28.36,North,0,4.0,13.0,30,0.00,,,0.00,meteohub,2013-05-14 14:16:00,
2013-05-14 10:21:00,46.9,19.4,28.37,NW,315,4.0,12.0,33,0.00,,,0.00,meteohub,2013-05-14 14:21:00,
2013-05-14 10:26:00,47.8,20.8,28.36,North,0,4.0,8.0,34,0.00,,,0.00,meteohub,2013-05-14 14:26:00,
2013-05-14 10:31:00,48.7,20.1,28.36,NW,315,3.0,8.0,32,0.00,,,0.00,meteohub,2013-05-14 14:31:00,
2013-05-14 10:36:00,49.1,15.6,28.36,West,270,4.0,8.0,26,0.00,,,0.00,meteohub,2013-05-14 14:36:00,
2013-05-14 10:41:00,48.7,13.5,28.36,WNW,293,9.0,11.0,24,0.00,,,0.00,meteohub,2013-05-14 14:41:00,
2013-05-14 10:46:00,48.2,12.2,28.36,North,0,6.0,11.0,23,0.00,,,0.00,meteohub,2013-05-14 14:46:00,
2013-05-14 10:51:00,47.5,12.6,28.36,North,0,4.0,11.0,24,0.00,,,0.00,meteohub,2013-05-14 14:51:00,
2013-05-14 10:56:00,48.2,14.9,28.35,NE,45,4.0,11.0,26,0.00,,,0.00,meteohub,2013-05-14 14:56:00,
2013-05-14 11:01:00,48.0,13.8,28.35,North,0,4.0,99.0,25,0.00,,,0.00,meteohub,2013-05-14 15:01:00,
2013-05-14 11:06:00,47.7,13.5,28.36,West,270,7.0,99.0,25,0.00,,,0.00,meteohub,2013-05-14 15:06:00,
2013-05-14 11:11:00,48.7,14.5,28.35,SW,225,4.0,99.0,25,0.00,,,0.00,meteohub,2013-05-14 15:11:00,
2013-05-14 11:16:00,50.2,14.7,28.35,North,0,10.0,10.0,24,0.00,,,0.00,meteohub,2013-05-14 15:16:00,
2013-05-14 11:21:00,49.1,11.8,28.35,NW,315,4.0,11.0,22,0.00,,,0.00,meteohub,2013-05-14 15:21:00,
2013-05-14 11:26:00,48.6,11.5,28.35,SE,135,5.0,11.0,22,0.00,,,0.00,meteohub,2013-05-14 15:26:00,
2013-05-14 11:32:00,48.7,13.5,28.35,SE,135,2.0,11.0,24,0.00,,,0.00,meteohub,2013-05-14 15:32:00,
2013-05-14 11:37:00,49.8,13.5,28.35,West,270,4.0,10.0,23,0.00,,,0.00,meteohub,2013-05-14 15:37:00,
2013-05-14 11:42:00,50.5,12.0,28.35,North,0,2.0,8.0,21,0.00,,,0.00,meteohub,2013-05-14 15:42:00,
2013-05-14 11:47:00,51.1,12.6,28.35,NE,45,5.0,8.0,21,0.00,,,0.00,meteohub,2013-05-14 15:47:00,
2013-05-14 11:52:00,50.5,10.9,28.35,NW,315,4.0,8.0,20,0.00,,,0.00,meteohub,2013-05-14 15:52:00,
2013-05-14 11:57:00,50.7,11.1,28.35,NE,45,6.0,8.0,20,0.00,,,0.00,meteohub,2013-05-14 15:57:00,
2013-05-14 12:02:00,50.7,11.1,28.35,North,0,6.0,8.0,20,0.00,,,0.00,meteohub,2013-05-14 16:02:00,
2013-05-14 12:07:00,50.9,11.3,28.35,North,0,6.0,11.0,20,0.00,,,0.00,meteohub,2013-05-14 16:07:00,
2013-05-14 12:12:00,51.3,11.5,28.35,SW,225,6.0,12.0,20,0.00,,,0.00,meteohub,2013-05-14 16:12:00,
2013-05-14 12:17:00,51.6,11.8,28.35,West,270,8.0,12.0,20,0.00,,,0.00,meteohub,2013-05-14 16:17:00,
2013-05-14 12:22:00,52.0,10.9,28.35,NW,315,4.0,12.0,19,0.00,,,0.00,meteohub,2013-05-14 16:22:00,
2013-05-14 12:27:00,51.4,11.7,28.35,North,0,3.0,15.0,20,0.00,,,0.00,meteohub,2013-05-14 16:27:00,
2013-05-14 12:32:00,51.6,11.8,28.35,North,0,7.0,15.0,20,0.00,,,0.00,meteohub,2013-05-14 16:32:00,
2013-05-14 12:37:00,51.6,11.8,28.35,North,0,7.0,15.0,20,0.00,,,0.00,meteohub,2013-05-14 16:37:00,
2013-05-14 12:42:00,51.8,8.4,28.34,NW,315,4.0,10.0,17,0.00,,,0.00,meteohub,2013-05-14 16:42:00,
2013-05-14 12:47:00,51.6,10.8,28.34,North,0,8.0,14.0,19,0.00,,,0.00,meteohub,2013-05-14 16:47:00,
2013-05-14 12:52:00,51.8,9.7,28.35,West,270,11.0,14.0,18,0.00,,,0.00,meteohub,2013-05-14 16:52:00,
2013-05-14 12:57:00,51.8,9.7,28.35,North,0,4.0,15.0,18,0.00,,,0.00,meteohub,2013-05-14 16:57:00,
2013-05-14 13:02:00,52.3,10.0,28.34,NW,315,2.0,15.0,18,0.00,,,0.00,meteohub,2013-05-14 17:02:00,
2013-05-14 13:07:00,53.4,10.9,28.34,SW,225,3.0,15.0,18,0.00,,,0.00,meteohub,2013-05-14 17:07:00,
2013-05-14 13:12:00,54.1,11.5,28.35,North,0,5.0,7.0,18,0.00,,,0.00,meteohub,2013-05-14 17:12:00,
2013-05-14 13:17:00,53.1,10.6,28.35,North,0,8.0,13.0,18,0.00,,,0.00,meteohub,2013-05-14 17:17:00,
2013-05-14 13:22:00,52.0,9.7,28.35,North,0,8.0,13.0,18,0.00,,,0.00,meteohub,2013-05-14 17:22:00,
2013-05-14 13:27:00,51.8,10.8,28.35,South,180,5.0,13.0,19,0.00,,,0.00,meteohub,2013-05-14 17:27:00,
2013-05-14 13:32:00,52.0,10.9,28.35,North,0,7.0,13.0,19,0.00,,,0.00,meteohub,2013-05-14 17:32:00,
2013-05-14 13:37:00,52.0,10.9,28.35,North,0,5.0,12.0,19,0.00,,,0.00,meteohub,2013-05-14 17:37:00,
2013-05-14 13:42:00,52.3,11.3,28.35,West,270,9.0,14.0,19,0.00,,,0.00,meteohub,2013-05-14 17:42:00,
2013-05-14 13:47:00,52.0,10.9,28.34,NW,315,5.0,14.0,19,0.00,,,0.00,meteohub,2013-05-14 17:47:00,
2013-05-14 13:52:00,52.5,12.6,28.34,North,0,13.0,14.0,20,0.00,,,0.00,meteohub,2013-05-14 17:52:00,
2013-05-14 13:57:00,52.0,12.2,28.35,North,0,6.0,13.0,20,0.00,,,0.00,meteohub,2013-05-14 17:57:00,
2013-05-14 14:02:00,52.0,12.2,28.34,North,0,11.0,13.0,20,0.00,,,0.00,meteohub,2013-05-14 18:02:00,
2013-05-14 14:07:00,52.2,12.2,28.34,NW,315,4.0,13.0,20,0.00,,,0.00,meteohub,2013-05-14 18:07:00,
2013-05-14 14:12:00,52.3,12.4,28.33,North,0,6.0,11.0,20,0.00,,,0.00,meteohub,2013-05-14 18:12:00,
2013-05-14 14:17:00,52.2,11.1,28.33,NE,45,8.0,11.0,19,0.00,,,0.00,meteohub,2013-05-14 18:17:00,
2013-05-14 14:22:00,52.0,12.2,28.33,NE,45,8.0,11.0,20,0.00,,,0.00,meteohub,2013-05-14 18:22:00,
2013-05-14 14:27:00,52.5,12.6,28.33,NE,45,9.0,14.0,20,0.00,,,0.00,meteohub,2013-05-14 18:27:00,
2013-05-14 14:32:00,52.5,11.5,28.33,North,0,7.0,15.0,19,0.00,,,0.00,meteohub,2013-05-14 18:32:00,
2013-05-14 14:37:00,52.3,11.3,28.33,North,0,5.0,15.0,19,0.00,,,0.00,meteohub,2013-05-14 18:37:00,
2013-05-14 14:42:00,52.0,10.9,28.33,SE,135,4.0,15.0,19,0.00,,,0.00,meteohub,2013-05-14 18:42:00,
2013-05-14 14:47:00,52.5,12.6,28.33,NW,315,9.0,15.0,20,0.00,,,0.00,meteohub,2013-05-14 18:47:00,
2013-05-14 14:52:00,52.5,12.6,28.33,NE,45,7.0,12.0,20,0.00,,,0.00,meteohub,2013-05-14 18:52:00,
2013-05-14 14:57:00,53.1,15.3,28.33,SE,135,2.0,9.0,22,0.00,,,0.00,meteohub,2013-05-14 18:57:00,
2013-05-14 15:02:00,54.0,12.6,28.33,North,0,6.0,9.0,19,0.00,,,0.00,meteohub,2013-05-14 19:02:00,
2013-05-14 15:07:00,54.7,15.4,28.33,NE,45,6.0,8.0,21,0.00,,,0.00,meteohub,2013-05-14 19:07:00,
2013-05-14 15:12:00,54.1,12.7,28.33,NW,315,2.0,11.0,19,0.00,,,0.00,meteohub,2013-05-14 19:12:00,
2013-05-14 15:17:00,53.1,13.1,28.33,North,0,3.0,11.0,20,0.00,,,0.00,meteohub,2013-05-14 19:17:00,
2013-05-14 15:22:00,53.1,14.2,28.33,North,0,2.0,11.0,21,0.00,,,0.00,meteohub,2013-05-14 19:22:00,
2013-05-14 15:27:00,53.1,13.1,28.32,West,270,7.0,11.0,20,0.00,,,0.00,meteohub,2013-05-14 19:27:00,
2013-05-14 15:32:00,52.5,13.6,28.32,North,0,11.0,13.0,21,0.00,,,0.00,meteohub,2013-05-14 19:32:00,
2013-05-14 15:37:00,52.3,14.5,28.32,North,0,7.0,13.0,22,0.00,,,0.00,meteohub,2013-05-14 19:37:00,
2013-05-14 15:42:00,52.3,13.5,28.32,West,270,4.0,13.0,21,0.00,,,0.00,meteohub,2013-05-14 19:42:00,
2013-05-14 15:47:00,52.5,14.7,28.32,West,270,4.0,13.0,22,0.00,,,0.00,meteohub,2013-05-14 19:47:00,
2013-05-14 15:52:00,53.1,15.3,28.31,NNW,338,8.0,11.0,22,0.00,,,0.00,meteohub,2013-05-14 19:52:00,
2013-05-14 15:57:00,53.2,16.3,28.31,North,0,5.0,11.0,23,0.00,,,0.00,meteohub,2013-05-14 19:57:00,
2013-05-14 16:02:00,53.6,15.6,28.31,North,0,7.0,11.0,22,0.00,,,0.00,meteohub,2013-05-14 20:02:00,
2013-05-14 16:07:00,53.2,15.4,28.31,NW,315,9.0,11.0,22,0.00,,,0.00,meteohub,2013-05-14 20:07:00,
2013-05-14 16:12:00,52.5,16.7,28.31,West,270,2.0,11.0,24,0.00,,,0.00,meteohub,2013-05-14 20:12:00,
2013-05-14 16:17:00,52.5,15.8,28.31,North,0,4.0,10.0,23,0.00,,,0.00,meteohub,2013-05-14 20:17:00,
2013-05-14 16:22:00,52.3,15.6,28.32,NNW,338,9.0,12.0,23,0.00,,,0.00,meteohub,2013-05-14 20:22:00,
2013-05-14 16:27:00,52.3,16.5,28.32,North,0,8.0,12.0,24,0.00,,,0.00,meteohub,2013-05-14 20:27:00,
2013-05-14 16:32:00,52.2,15.4,28.31,West,270,4.0,12.0,23,0.00,,,0.00,meteohub,2013-05-14 20:32:00,
2013-05-14 16:37:00,52.2,16.5,28.31,North,0,4.0,9.0,24,0.00,,,0.00,meteohub,2013-05-14 20:37:00,
2013-05-14 16:42:00,52.3,17.6,28.30,NE,45,5.0,8.0,25,0.00,,,0.00,meteohub,2013-05-14 20:42:00,
2013-05-14 16:47:00,52.7,17.8,28.31,North,0,4.0,8.0,25,0.00,,,0.00,meteohub,2013-05-14 20:47:00,
2013-05-14 16:52:00,52.7,16.0,28.31,NE,45,8.0,11.0,23,0.00,,,0.00,meteohub,2013-05-14 20:52:00,
2013-05-14 16:57:00,52.2,15.4,28.31,West,270,4.0,11.0,23,0.00,,,0.00,meteohub,2013-05-14 20:57:00,
2013-05-14 17:02:00,52.2,15.4,28.31,North,0,9.0,11.0,23,0.00,,,0.00,meteohub,2013-05-14 21:02:00,
2013-05-14 17:07:00,52.5,16.7,28.31,WNW,293,2.0,11.0,24,0.00,,,0.00,meteohub,2013-05-14 21:07:00,
2013-05-14 17:12:00,53.6,15.6,28.31,NW,315,4.0,11.0,22,0.00,,,0.00,meteohub,2013-05-14 21:12:00,
2013-05-14 17:18:00,54.0,14.9,28.30,NE,45,8.0,11.0,21,0.00,,,0.00,meteohub,2013-05-14 21:18:00,
2013-05-14 17:23:00,53.8,14.7,28.31,North,0,5.0,8.0,21,0.00,,,0.00,meteohub,2013-05-14 21:23:00,
2013-05-14 17:28:00,53.4,14.4,28.30,NW,315,10.0,10.0,21,0.00,,,0.00,meteohub,2013-05-14 21:28:00,
2013-05-14 17:33:00,53.2,15.4,28.31,West,270,4.0,10.0,22,0.00,,,0.00,meteohub,2013-05-14 21:33:00,
2013-05-14 17:38:00,53.4,15.4,28.31,NW,315,5.0,10.0,22,0.00,,,0.00,meteohub,2013-05-14 21:38:00,
2013-05-14 17:43:00,53.4,15.4,28.31,NW,315,7.0,10.0,22,0.00,,,0.00,meteohub,2013-05-14 21:43:00,
2013-05-14 17:48:00,53.6,15.6,28.31,North,0,7.0,8.0,22,0.00,,,0.00,meteohub,2013-05-14 21:48:00,
2013-05-14 17:53:00,52.9,15.1,28.31,NW,315,2.0,8.0,22,0.00,,,0.00,meteohub,2013-05-14 21:53:00,
2013-05-14 17:58:00,52.7,16.9,28.30,SE,135,2.0,8.0,24,0.00,,,0.00,meteohub,2013-05-14 21:58:00,
2013-05-14 18:03:00,52.5,16.7,28.30,North,0,3.0,8.0,24,0.00,,,0.00,meteohub,2013-05-14 22:03:00,
2013-05-14 18:08:00,52.5,17.8,28.30,West,270,4.0,8.0,25,0.00,,,0.00,meteohub,2013-05-14 22:08:00,
2013-05-14 18:13:00,52.3,15.6,28.31,NW,315,4.0,8.0,23,0.00,,,0.00,meteohub,2013-05-14 22:13:00,
2013-05-14 18:18:00,52.0,15.3,28.31,North,0,4.0,8.0,23,0.00,,,0.00,meteohub,2013-05-14 22:18:00,
2013-05-14 18:24:00,51.8,17.1,28.30,WNW,293,4.0,10.0,25,0.00,,,0.00,meteohub,2013-05-14 22:24:00,
2013-05-14 18:29:00,51.8,17.1,28.31,NE,45,6.0,10.0,25,0.00,,,0.00,meteohub,2013-05-14 22:29:00,
2013-05-14 18:34:00,51.4,18.5,28.31,North,0,5.0,11.0,27,0.00,,,0.00,meteohub,2013-05-14 22:34:00,
2013-05-14 18:39:00,51.1,18.3,28.31,North,0,11.0,11.0,27,0.00,,,0.00,meteohub,2013-05-14 22:39:00,
2013-05-14 18:44:00,50.9,18.9,28.31,North,0,11.0,11.0,28,0.00,,,0.00,meteohub,2013-05-14 22:44:00,
2013-05-14 18:49:00,50.7,18.9,28.31,North,0,9.0,11.0,28,0.00,,,0.00,meteohub,2013-05-14 22:49:00,
2013-05-14 18:54:00,50.5,18.7,28.30,South,180,3.0,11.0,28,0.00,,,0.00,meteohub,2013-05-14 22:54:00,
2013-05-14 18:59:00,50.9,20.5,28.30,North,0,4.0,11.0,30,0.00,,,0.00,meteohub,2013-05-14 22:59:00,
2013-05-14 19:04:00,51.1,20.7,28.30,North,0,6.0,10.0,30,0.00,,,0.00,meteohub,2013-05-14 23:04:00,
2013-05-14 19:09:00,50.9,20.5,28.30,North,0,4.0,7.0,30,0.00,,,0.00,meteohub,2013-05-14 23:09:00,
2013-05-14 19:14:00,50.4,19.2,28.30,NNE,23,7.0,8.0,29,0.00,,,0.00,meteohub,2013-05-14 23:14:00,
2013-05-14 19:19:00,50.2,19.9,28.30,SE,135,0.0,8.0,30,0.00,,,0.00,meteohub,2013-05-14 23:19:00,
2013-05-14 19:24:00,50.0,19.8,28.31,NE,45,5.0,8.0,30,0.00,,,0.00,meteohub,2013-05-14 23:24:00,
2013-05-14 19:29:00,49.8,20.3,28.30,NE,45,2.0,8.0,31,0.00,,,0.00,meteohub,2013-05-14 23:29:00,
2013-05-14 19:35:00,49.5,20.8,28.30,NE,45,4.0,8.0,32,0.00,,,0.00,meteohub,2013-05-14 23:35:00,
2013-05-14 19:40:00,49.3,20.7,28.30,NW,315,2.0,8.0,32,0.00,,,0.00,meteohub,2013-05-14 23:40:00,
2013-05-14 19:45:00,48.9,21.0,28.31,SW,225,2.0,5.0,33,0.00,,,0.00,meteohub,2013-05-14 23:45:00,
2013-05-14 19:50:00,48.4,22.6,28.31,SW,225,2.0,5.0,36,0.00,,,0.00,meteohub,2013-05-14 23:50:00,
2013-05-14 19:55:00,47.3,25.9,28.31,SW,225,2.0,4.0,43,0.00,,,0.00,meteohub,2013-05-14 23:55:00,
2013-05-14 20:00:00,46.6,25.9,28.31,SW,225,2.0,2.0,44,0.00,,,0.00,meteohub,2013-05-15 00:00:00,
2013-05-14 20:05:00,45.7,25.5,28.31,SW,225,0.0,2.0,45,0.00,,,0.00,meteohub,2013-05-15 00:05:00,
2013-05-14 20:10:00,45.1,25.5,28.31,South,180,2.0,2.0,46,0.00,,,0.00,meteohub,2013-05-15 00:10:00,
2013-05-14 20:15:00,44.6,26.1,28.31,South,180,0.0,2.0,48,0.00,,,0.00,meteohub,2013-05-15 00:15:00,
2013-05-14 20:20:00,44.1,26.6,28.32,South,180,2.0,2.0,50,0.00,,,0.00,meteohub,2013-05-15 00:20:00,
2013-05-14 20:25:00,43.5,26.6,28.31,South,180,2.0,2.0,51,0.00,,,0.00,meteohub,2013-05-15 00:25:00,
2013-05-14 20:30:00,43.2,26.8,28.32,SE,135,0.0,2.0,52,0.00,,,0.00,meteohub,2013-05-15 00:30:00,
2013-05-14 20:35:00,42.8,27.3,28.32,SE,135,1.0,2.0,54,0.00,,,0.00,meteohub,2013-05-15 00:35:00,
2013-05-14 20:40:00,42.1,27.1,28.32,SE,135,0.0,2.0,55,0.00,,,0.00,meteohub,2013-05-15 00:40:00,
2013-05-14 20:46:00,41.7,27.1,28.32,SE,135,1.0,2.0,56,0.00,,,0.00,meteohub,2013-05-15 00:46:00,
2013-05-14 20:51:00,41.2,28.4,28.33,SE,135,0.0,2.0,60,0.00,,,0.00,meteohub,2013-05-15 00:51:00,
2013-05-14 20:56:00,40.8,28.8,28.33,SE,135,0.0,2.0,62,0.00,,,0.00,meteohub,2013-05-15 00:56:00,
2013-05-14 21:01:00,40.3,28.2,28.32,SE,135,2.0,2.0,62,0.00,,,0.00,meteohub,2013-05-15 01:01:00,
2013-05-14 21:06:00,39.7,28.6,28.33,NW,315,0.0,2.0,64,0.00,,,0.00,meteohub,2013-05-15 01:06:00,
2013-05-14 21:11:00,39.2,27.7,28.33,NW,315,0.0,2.0,63,0.00,,,0.00,meteohub,2013-05-15 01:11:00,
2013-05-14 21:16:00,38.8,28.0,28.33,NW,315,0.0,2.0,65,0.00,,,0.00,meteohub,2013-05-15 01:16:00,
2013-05-14 21:21:00,38.5,28.4,28.33,SE,135,2.0,2.0,67,0.00,,,0.00,meteohub,2013-05-15 01:21:00,
2013-05-14 21:26:00,38.3,28.9,28.33,South,180,2.0,2.0,69,0.00,,,0.00,meteohub,2013-05-15 01:26:00,
2013-05-14 21:31:00,37.9,29.7,28.33,SE,135,2.0,2.0,72,0.00,,,0.00,meteohub,2013-05-15 01:31:00,
2013-05-14 21:37:00,37.8,29.8,28.34,SE,135,2.0,4.0,73,0.00,,,0.00,meteohub,2013-05-15 01:37:00,
2013-05-14 21:42:00,37.8,30.2,28.33,SE,135,4.0,4.0,74,0.00,,,0.00,meteohub,2013-05-15 01:42:00,
2013-05-14 21:47:00,37.6,30.0,28.34,South,180,4.0,4.0,74,0.00,,,0.00,meteohub,2013-05-15 01:47:00,
2013-05-14 21:52:00,37.4,30.2,28.34,SW,225,2.0,4.0,75,0.00,,,0.00,meteohub,2013-05-15 01:52:00,
2013-05-14 21:57:00,37.2,28.8,28.34,SE,135,2.0,4.0,71,0.00,,,0.00,meteohub,2013-05-15 01:57:00,
2013-05-14 22:02:00,36.9,28.4,28.33,SE,135,2.0,4.0,71,0.00,,,0.00,meteohub,2013-05-15 02:02:00,
2013-05-14 22:07:00,36.5,28.4,28.34,SE,135,2.0,4.0,72,0.00,,,0.00,meteohub,2013-05-15 02:07:00,
2013-05-14 22:12:00,36.1,28.6,28.34,SE,135,2.0,2.0,74,0.00,,,0.00,meteohub,2013-05-15 02:12:00,
2013-05-14 22:17:00,35.8,28.4,28.34,East,90,1.0,2.0,74,0.00,,,0.00,meteohub,2013-05-15 02:17:00,
2013-05-14 22:22:00,35.6,28.2,28.34,NE,45,0.0,3.0,74,0.00,,,0.00,meteohub,2013-05-15 02:22:00,
2013-05-14 22:27:00,35.2,27.9,28.34,East,90,2.0,3.0,74,0.00,,,0.00,meteohub,2013-05-15 02:27:00,
2013-05-14 22:32:00,35.2,28.0,28.34,East,90,1.0,3.0,75,0.00,,,0.00,meteohub,2013-05-15 02:32:00,
2013-05-14 22:37:00,35.1,28.2,28.34,SE,135,2.0,2.0,76,0.00,,,0.00,meteohub,2013-05-15 02:37:00,
2013-05-14 22:42:00,34.9,28.4,28.34,South,180,2.0,3.0,77,0.00,,,0.00,meteohub,2013-05-15 02:42:00,
2013-05-14 22:48:00,34.5,28.4,28.34,East,90,2.0,3.0,78,0.00,,,0.00,meteohub,2013-05-15 02:48:00,
2013-05-14 22:53:00,34.3,27.9,28.34,East,90,0.0,3.0,77,0.00,,,0.00,meteohub,2013-05-15 02:53:00,
2013-05-14 22:58:00,34.0,27.5,28.34,SE,135,1.0,2.0,77,0.00,,,0.00,meteohub,2013-05-15 02:58:00,
2013-05-14 23:03:00,33.8,27.3,28.34,SE,135,1.0,2.0,77,0.00,,,0.00,meteohub,2013-05-15 03:03:00,
2013-05-14 23:08:00,33.6,27.9,28.34,SE,135,0.0,2.0,79,0.00,,,0.00,meteohub,2013-05-15 03:08:00,
2013-05-14 23:13:00,33.4,27.9,28.34,SE,135,2.0,2.0,80,0.00,,,0.00,meteohub,2013-05-15 03:13:00,
2013-05-14 23:18:00,33.3,27.7,28.34,SSE,158,2.0,2.0,80,0.00,,,0.00,meteohub,2013-05-15 03:18:00,
2013-05-14 23:23:00,33.1,27.5,28.34,SE,135,2.0,2.0,80,0.00,,,0.00,meteohub,2013-05-15 03:23:00,
2013-05-14 23:28:00,32.9,27.7,28.34,SE,135,1.0,3.0,81,0.00,,,0.00,meteohub,2013-05-15 03:28:00,
2013-05-14 23:33:00,32.7,27.9,28.34,SE,135,2.0,3.0,82,0.00,,,0.00,meteohub,2013-05-15 03:33:00,
2013-05-14 23:38:00,32.5,27.7,28.34,SE,135,2.0,3.0,82,0.00,,,0.00,meteohub,2013-05-15 03:38:00,
2013-05-14 23:43:00,32.4,27.5,28.34,SE,135,2.0,2.0,82,0.00,,,0.00,meteohub,2013-05-15 03:43:00,
2013-05-14 23:48:00,32.4,27.5,28.35,SE,135,2.0,3.0,82,0.00,,,0.00,meteohub,2013-05-15 03:48:00,
2013-05-14 23:53:00,32.2,27.7,28.34,SE,135,1.0,3.0,83,0.00,,,0.00,meteohub,2013-05-15 03:53:00,
2013-05-14 23:59:00,32.0,27.5,28.35,SE,135,2.0,3.0,83,0.00,,,0.00,meteohub,2013-05-15 03:59:00,